createdAt,value
2019-02-07T00:00:29.120Z,3.26
2019-02-07T00:01:29.093Z,3.21
2019-02-07T00:02:29.655Z,3.08
2019-02-07T00:03:29.063Z,3.13
2019-02-07T00:04:29.041Z,3.13
2019-02-07T00:05:29.033Z,3.06
2019-02-07T00:06:29.007Z,3.03
2019-02-07T00:07:28.995Z,2.95
2019-02-07T00:08:28.982Z,2.93
2019-02-07T00:09:28.960Z,2.84
2019-02-07T00:10:29.265Z,2.87
2019-02-07T00:11:28.929Z,2.79
2019-02-07T00:12:28.914Z,2.87
2019-02-07T00:13:28.909Z,2.87
2019-02-07T00:14:39.267Z,2.81
2019-02-07T00:15:28.869Z,2.74
2019-02-07T00:16:28.849Z,2.72
2019-02-07T00:17:29.110Z,2.69
2019-02-07T00:18:28.817Z,2.64
2019-02-07T00:19:28.806Z,2.64
2019-02-07T00:20:28.783Z,2.57
2019-02-07T00:21:28.773Z,2.6
2019-02-07T00:22:28.750Z,2.59
2019-02-07T00:23:28.738Z,2.59
2019-02-07T00:24:28.731Z,2.53
2019-02-07T00:25:29.255Z,2.56
2019-02-07T00:26:28.692Z,2.52
2019-02-07T00:27:28.676Z,2.41
2019-02-07T00:28:28.661Z,2.43
2019-02-07T00:29:28.637Z,2.39
2019-02-07T00:30:28.620Z,2.36
2019-02-07T00:31:28.612Z,2.31
2019-02-07T00:32:28.597Z,2.38
2019-02-07T00:33:30.675Z,2.39
2019-02-07T00:34:28.558Z,2.35
2019-02-07T00:35:28.541Z,2.38
2019-02-07T00:36:28.553Z,2.35
2019-02-07T00:37:28.517Z,2.24
2019-02-07T00:38:28.509Z,2.28
2019-02-07T00:39:28.474Z,2.31
2019-02-07T00:40:28.471Z,2.21
2019-02-07T00:41:29.117Z,2.28
2019-02-07T00:42:28.432Z,2.18
2019-02-07T00:43:28.421Z,2.21
2019-02-07T00:44:28.400Z,2.21
2019-02-07T00:45:28.389Z,2.07
2019-02-07T00:46:28.361Z,2.16
2019-02-07T00:47:28.347Z,2.05
2019-02-07T00:48:28.330Z,2.06
2019-02-07T00:49:28.600Z,2.06
2019-02-07T00:50:30.866Z,2.16
2019-02-07T00:51:28.054Z,2.12
2019-02-07T00:52:28.264Z,2.1
2019-02-07T00:53:28.246Z,2.03
2019-02-07T00:54:28.240Z,2.09
2019-02-07T00:55:28.225Z,2.07
2019-02-07T00:56:28.454Z,1.95
2019-02-07T00:57:28.516Z,2
2019-02-07T00:58:28.166Z,1.88
2019-02-07T00:59:28.152Z,2.03
2019-02-07T01:00:28.137Z,1.9
2019-02-07T01:01:28.116Z,1.91
2019-02-07T01:02:28.100Z,1.88
2019-02-07T01:03:28.084Z,1.84
2019-02-07T01:04:28.553Z,1.84
2019-02-07T01:05:28.072Z,1.9
2019-02-07T01:06:28.038Z,1.86
2019-02-07T01:07:28.015Z,1.83
2019-02-07T01:08:27.996Z,1.81
2019-02-07T01:09:27.983Z,1.76
2019-02-07T01:10:28.094Z,1.8
2019-02-07T01:11:27.950Z,1.81
2019-02-07T01:12:28.497Z,1.72
2019-02-07T01:13:27.918Z,1.8
2019-02-07T01:14:27.910Z,1.73
2019-02-07T01:15:27.892Z,1.77
2019-02-07T01:16:27.868Z,1.73
2019-02-07T01:17:27.856Z,1.77
2019-02-07T01:18:27.833Z,1.77
2019-02-07T01:19:27.819Z,1.72
2019-02-07T01:20:28.144Z,1.79
2019-02-07T01:21:27.785Z,1.77
2019-02-07T01:22:27.766Z,1.77
2019-02-07T01:23:27.762Z,1.77
2019-02-07T01:24:27.741Z,1.8
2019-02-07T01:25:27.720Z,1.77
2019-02-07T01:26:27.703Z,1.76
2019-02-07T01:27:28.062Z,1.76
2019-02-07T01:28:27.669Z,1.66
2019-02-07T01:29:27.655Z,1.63
2019-02-07T01:30:27.630Z,1.58
2019-02-07T01:31:27.622Z,1.59
2019-02-07T01:32:27.599Z,1.62
2019-02-07T01:33:27.589Z,1.58
2019-02-07T01:34:27.568Z,1.6
2019-02-07T01:35:28.140Z,1.62
2019-02-07T01:36:27.532Z,1.6
2019-02-07T01:37:27.522Z,1.62
2019-02-07T01:38:27.264Z,1.51
2019-02-07T01:39:27.482Z,1.5
2019-02-07T01:40:27.467Z,1.44
2019-02-07T01:41:27.463Z,1.48
2019-02-07T01:42:27.444Z,1.51
2019-02-07T01:43:27.753Z,1.47
2019-02-07T01:44:27.410Z,1.41
2019-02-07T01:45:27.396Z,1.45
2019-02-07T01:46:27.361Z,1.47
2019-02-07T01:47:27.350Z,1.37
2019-02-07T01:48:27.329Z,1.41
2019-02-07T01:49:27.320Z,1.41
2019-02-07T01:50:27.658Z,1.37
2019-02-07T01:51:27.281Z,1.36
2019-02-07T01:52:27.256Z,1.34
2019-02-07T01:53:27.252Z,1.36
2019-02-07T01:54:27.233Z,1.33
2019-02-07T01:55:26.980Z,1.32
2019-02-07T01:56:27.197Z,1.33
2019-02-07T01:57:27.171Z,1.34
2019-02-07T01:58:27.688Z,1.34
2019-02-07T01:59:27.152Z,1.34
2019-02-07T02:00:27.124Z,1.3
2019-02-07T02:01:27.114Z,1.37
2019-02-07T02:02:27.102Z,1.34
2019-02-07T02:03:27.079Z,1.22
2019-02-07T02:04:27.103Z,1.23
2019-02-07T02:05:27.050Z,1.3
2019-02-07T02:06:27.396Z,1.27
2019-02-07T02:07:27.009Z,1.3
2019-02-07T02:08:26.993Z,1.27
2019-02-07T02:09:26.979Z,1.2
2019-02-07T02:10:26.961Z,1.22
2019-02-07T02:11:26.939Z,1.2
2019-02-07T02:12:26.923Z,1.24
2019-02-07T02:13:27.114Z,1.14
2019-02-07T02:14:26.889Z,1.09
2019-02-07T02:15:29.840Z,1.14
2019-02-07T02:16:28.941Z,1.12
2019-02-07T02:17:26.843Z,1.11
2019-02-07T02:18:26.826Z,1.16
2019-02-07T02:19:27.065Z,1.14
2019-02-07T02:20:26.788Z,1.14
2019-02-07T02:21:27.128Z,1.12
2019-02-07T02:22:26.748Z,1.06
2019-02-07T02:23:26.741Z,1.12
2019-02-07T02:24:26.720Z,0.98
2019-02-07T02:25:26.723Z,1
2019-02-07T02:26:26.701Z,1.02
2019-02-07T02:27:26.665Z,1.15
2019-02-07T02:28:26.649Z,1.04
2019-02-07T02:29:27.282Z,1
2019-02-07T02:30:26.618Z,1.04
2019-02-07T02:31:26.607Z,1.04
2019-02-07T02:32:26.606Z,1.05
2019-02-07T02:33:26.587Z,1.06
2019-02-07T02:34:26.308Z,1.05
2019-02-07T02:35:26.531Z,1.05
2019-02-07T02:36:26.724Z,1.02
2019-02-07T02:37:26.502Z,0.98
2019-02-07T02:38:26.484Z,1.06
2019-02-07T02:39:26.463Z,1
2019-02-07T02:40:26.451Z,1.02
2019-02-07T02:41:26.429Z,1.02
2019-02-07T02:42:26.409Z,0.98
2019-02-07T02:43:26.392Z,1
2019-02-07T02:44:26.992Z,1
2019-02-07T02:45:39.636Z,0.96
2019-02-07T02:46:26.337Z,0.94
2019-02-07T02:47:26.332Z,0.93
2019-02-07T02:48:26.308Z,0.9
2019-02-07T02:49:26.299Z,0.93
2019-02-07T02:50:26.278Z,0.93
2019-02-07T02:51:26.009Z,0.83
2019-02-07T02:52:26.516Z,0.87
2019-02-07T02:53:26.224Z,0.94
2019-02-07T02:54:26.210Z,0.86
2019-02-07T02:55:26.186Z,0.88
2019-02-07T02:56:26.183Z,0.84
2019-02-07T02:57:26.174Z,0.9
2019-02-07T02:58:26.133Z,0.88
2019-02-07T02:59:26.260Z,0.87
2019-02-07T03:00:25.860Z,0.79
2019-02-07T03:01:26.093Z,0.93
2019-02-07T03:02:26.075Z,0.94
2019-02-07T03:03:26.052Z,0.93
2019-02-07T03:04:26.039Z,0.9
2019-02-07T03:05:26.017Z,0.94
2019-02-07T03:06:25.990Z,0.9
2019-02-07T03:07:26.175Z,0.9
2019-02-07T03:08:25.965Z,0.84
2019-02-07T03:09:25.956Z,0.8
2019-02-07T03:10:25.954Z,0.8
2019-02-07T03:11:25.920Z,0.91
2019-02-07T03:12:25.891Z,0.91
2019-02-07T03:13:25.876Z,0.87
2019-02-07T03:14:25.880Z,0.84
2019-02-07T03:15:26.345Z,0.87
2019-02-07T03:16:25.824Z,0.88
2019-02-07T03:17:25.817Z,0.86
2019-02-07T03:18:25.798Z,0.84
2019-02-07T03:19:25.775Z,0.83
2019-02-07T03:20:25.761Z,0.91
2019-02-07T03:21:25.738Z,0.86
2019-02-07T03:22:25.723Z,0.87
2019-02-07T03:23:26.317Z,0.8
2019-02-07T03:24:25.677Z,0.84
2019-02-07T03:25:25.670Z,0.86
2019-02-07T03:26:25.663Z,0.79
2019-02-07T03:27:25.627Z,0.75
2019-02-07T03:28:25.629Z,0.78
2019-02-07T03:29:25.603Z,0.76
2019-02-07T03:30:25.642Z,0.76
2019-02-07T03:31:25.987Z,0.8
2019-02-07T03:32:25.559Z,0.78
2019-02-07T03:33:25.536Z,0.79
2019-02-07T03:34:25.509Z,0.76
2019-02-07T03:35:25.489Z,0.79
2019-02-07T03:36:25.482Z,0.69
2019-02-07T03:37:25.452Z,0.76
2019-02-07T03:38:25.690Z,0.73
2019-02-07T03:39:25.425Z,0.76
2019-02-07T03:40:25.401Z,0.66
2019-02-07T03:41:25.389Z,0.68
2019-02-07T03:42:25.364Z,0.62
2019-02-07T03:43:25.352Z,0.65
2019-02-07T03:44:25.351Z,0.66
2019-02-07T03:45:25.318Z,0.66
2019-02-07T03:46:25.827Z,0.69
2019-02-07T03:47:25.293Z,0.69
2019-02-07T03:48:25.374Z,0.61
2019-02-07T03:49:25.246Z,0.7
2019-02-07T03:50:25.234Z,0.68
2019-02-07T03:51:25.213Z,0.69
2019-02-07T03:52:25.189Z,0.7
2019-02-07T03:53:25.179Z,0.68
2019-02-07T03:54:25.791Z,0.65
2019-02-07T03:55:25.140Z,0.75
2019-02-07T03:56:25.129Z,0.72
2019-02-07T03:57:25.126Z,0.73
2019-02-07T03:58:25.093Z,0.6
2019-02-07T03:59:25.080Z,0.65
2019-02-07T04:00:25.074Z,0.6
2019-02-07T04:01:25.193Z,0.6
2019-02-07T04:02:27.337Z,0.65
2019-02-07T04:03:25.018Z,0.61
2019-02-07T04:04:24.757Z,0.65
2019-02-07T04:05:24.964Z,0.58
2019-02-07T04:06:24.947Z,0.57
2019-02-07T04:07:24.938Z,0.58
2019-02-07T04:08:24.925Z,0.57
2019-02-07T04:09:25.101Z,0.53
2019-02-07T04:10:24.882Z,0.41
2019-02-07T04:11:24.885Z,0.53
2019-02-07T04:12:24.837Z,0.42
2019-02-07T04:13:24.840Z,0.51
2019-02-07T04:14:24.805Z,0.47
2019-02-07T04:15:24.790Z,0.53
2019-02-07T04:16:24.773Z,0.5
2019-02-07T04:17:25.182Z,0.47
2019-02-07T04:18:24.749Z,0.47
2019-02-07T04:19:24.725Z,0.46
2019-02-07T04:20:24.731Z,0.46
2019-02-07T04:21:24.708Z,0.39
2019-02-07T04:22:24.796Z,0.39
2019-02-07T04:23:24.667Z,0.35
2019-02-07T04:24:24.646Z,0.35
2019-02-07T04:25:25.286Z,0.29
2019-02-07T04:26:24.597Z,0.28
2019-02-07T04:27:24.578Z,0.31
2019-02-07T04:28:24.569Z,0.38
2019-02-07T04:29:24.553Z,0.35
2019-02-07T04:30:24.552Z,0.29
2019-02-07T04:31:24.511Z,0.32
2019-02-07T04:32:24.493Z,0.29
2019-02-07T04:33:24.785Z,0.26
2019-02-07T04:34:24.521Z,0.26
2019-02-07T04:35:24.444Z,0.24
2019-02-07T04:37:24.421Z,0.2
2019-02-07T04:38:24.393Z,0.14
2019-02-07T04:39:24.383Z,0.17
2019-02-07T04:40:24.355Z,0.23
2019-02-07T04:41:24.704Z,0.23
2019-02-07T04:42:24.329Z,0.23
2019-02-07T04:43:24.298Z,0.1
2019-02-07T04:44:24.283Z,0.14
2019-02-07T04:45:24.265Z,0.13
2019-02-07T04:46:31.788Z,0.08
2019-02-07T04:47:24.228Z,0.14
2019-02-07T04:48:24.525Z,0.17
2019-02-07T04:49:24.190Z,0.13
2019-02-07T04:50:24.175Z,0.04
2019-02-07T04:51:24.149Z,0.03
2019-02-07T04:52:24.141Z,0.08
2019-02-07T04:53:24.125Z,0.07
2019-02-07T04:54:24.099Z,0.11
2019-02-07T04:55:24.083Z,0.07
2019-02-07T04:56:24.547Z,0.07
2019-02-07T04:57:24.045Z,0.08
2019-02-07T04:58:24.025Z,0.17
2019-02-07T04:59:24.024Z,0.15
2019-02-07T05:00:23.990Z,0.13
2019-02-07T05:01:23.988Z,0.15
2019-02-07T05:02:23.958Z,0.13
2019-02-07T05:03:23.946Z,0.13
2019-02-07T05:04:24.615Z,0.15
2019-02-07T05:05:23.904Z,0.17
2019-02-07T05:06:23.881Z,0.21
2019-02-07T05:07:23.867Z,0.14
2019-02-07T05:08:23.858Z,0.1
2019-02-07T05:09:23.859Z,0.2
2019-02-07T05:10:23.822Z,0.21
2019-02-07T05:11:23.917Z,0.17
2019-02-07T05:12:23.880Z,0.13
2019-02-07T05:13:23.770Z,0.13
2019-02-07T05:14:23.758Z,0.13
2019-02-07T05:15:23.726Z,0.13
2019-02-07T05:16:23.703Z,0.15
2019-02-07T05:17:23.683Z,0.14
2019-02-07T05:18:23.672Z,0.15
2019-02-07T05:19:24.245Z,0.13
2019-02-07T05:20:23.645Z,0.24
2019-02-07T05:21:23.617Z,0.21
2019-02-07T05:22:23.599Z,0.17
2019-02-07T05:23:23.580Z,0.2
2019-02-07T05:24:23.561Z,0.24
2019-02-07T05:25:23.551Z,0.31
2019-02-07T05:26:23.532Z,0.32
2019-02-07T05:27:23.831Z,0.26
2019-02-07T05:28:23.490Z,0.29
2019-02-07T05:29:23.555Z,0.29
2019-02-07T05:30:23.549Z,0.32
2019-02-07T05:31:23.211Z,0.31
2019-02-07T05:32:23.451Z,0.38
2019-02-07T05:33:23.419Z,0.38
2019-02-07T05:34:23.639Z,0.41
2019-02-07T05:35:23.367Z,0.42
2019-02-07T05:36:23.360Z,0.46
2019-02-07T05:37:23.334Z,0.47
2019-02-07T05:38:23.321Z,0.49
2019-02-07T05:39:23.305Z,0.62
2019-02-07T05:40:23.277Z,0.58
2019-02-07T05:41:23.255Z,0.61
2019-02-07T05:42:25.278Z,0.66
2019-02-07T05:43:23.223Z,0.68
2019-02-07T05:44:23.213Z,0.62
2019-02-07T05:45:23.208Z,0.66
2019-02-07T05:46:23.166Z,0.75
2019-02-07T05:47:23.151Z,0.75
2019-02-07T05:48:23.138Z,0.83
2019-02-07T05:49:23.127Z,0.76
2019-02-07T05:50:23.600Z,0.78
2019-02-07T05:51:23.077Z,0.79
2019-02-07T05:52:23.063Z,0.83
2019-02-07T05:53:23.058Z,0.87
2019-02-07T05:54:23.031Z,0.88
2019-02-07T05:55:23.010Z,0.9
2019-02-07T05:56:23.007Z,0.93
2019-02-07T05:57:23.265Z,0.91
2019-02-07T05:58:22.985Z,0.84
2019-02-07T05:59:22.935Z,0.76
2019-02-07T06:00:22.685Z,0.8
2019-02-07T06:01:22.913Z,0.88
2019-02-07T06:02:22.889Z,0.86
2019-02-07T06:03:22.905Z,0.83
2019-02-07T06:04:23.779Z,0.87
2019-02-07T06:05:23.373Z,0.79
2019-02-07T06:06:22.830Z,0.76
2019-02-07T06:07:22.792Z,0.83
2019-02-07T06:08:22.790Z,0.8
2019-02-07T06:09:22.530Z,0.72
2019-02-07T06:10:22.757Z,0.72
2019-02-07T06:11:22.741Z,0.68
2019-02-07T06:12:22.710Z,0.72
2019-02-07T06:13:23.374Z,0.78
2019-02-07T06:14:22.462Z,0.62
2019-02-07T06:15:22.769Z,0.53
2019-02-07T06:16:22.647Z,0.58
2019-02-07T06:17:22.624Z,0.65
2019-02-07T06:18:22.617Z,0.6
2019-02-07T06:19:22.602Z,0.61
2019-02-07T06:20:22.590Z,0.65
2019-02-07T06:21:22.870Z,0.58
2019-02-07T06:22:22.547Z,0.58
2019-02-07T06:23:22.518Z,0.58
2019-02-07T06:24:22.502Z,0.61
2019-02-07T06:25:22.497Z,0.51
2019-02-07T06:26:22.393Z,0.55
2019-02-07T06:27:22.470Z,0.68
2019-02-07T06:28:22.714Z,0.6
2019-02-07T06:29:22.411Z,0.58
2019-02-07T06:30:22.397Z,0.5
2019-02-07T06:31:22.396Z,0.66
2019-02-07T06:32:37.025Z,0.57
2019-02-07T06:33:22.344Z,0.6
2019-02-07T06:34:33.471Z,0.61
2019-02-07T06:35:22.311Z,0.6
2019-02-07T06:36:22.886Z,0.68
2019-02-07T06:37:22.276Z,0.62
2019-02-07T06:38:22.265Z,0.69
2019-02-07T06:39:22.238Z,0.66
2019-02-07T06:40:22.223Z,0.68
2019-02-07T06:41:22.209Z,0.73
2019-02-07T06:42:22.193Z,0.7
2019-02-07T06:43:22.189Z,0.78
2019-02-07T06:44:22.763Z,0.83
2019-02-07T06:45:22.133Z,0.8
2019-02-07T06:46:22.114Z,0.8
2019-02-07T06:47:22.101Z,0.87
2019-02-07T06:48:22.080Z,0.83
2019-02-07T06:49:22.056Z,0.88
2019-02-07T06:50:22.055Z,0.9
2019-02-07T06:51:22.021Z,0.86
2019-02-07T06:52:22.431Z,0.91
2019-02-07T06:53:22.000Z,0.91
2019-02-07T06:54:21.978Z,0.98
2019-02-07T06:55:21.964Z,1.09
2019-02-07T06:56:21.939Z,1.14
2019-02-07T06:57:21.789Z,1.02
2019-02-07T06:58:21.915Z,1.15
2019-02-07T06:59:22.086Z,1.15
2019-02-07T07:00:21.900Z,1.18
2019-02-07T07:01:21.858Z,1.26
2019-02-07T07:02:21.846Z,1.32
2019-02-07T07:03:21.826Z,1.37
2019-02-07T07:04:21.803Z,1.47
2019-02-07T07:05:21.792Z,1.45
2019-02-07T07:06:21.766Z,1.51
2019-02-07T07:07:22.008Z,1.6
2019-02-07T07:08:21.736Z,1.62
2019-02-07T07:09:22.933Z,1.59
2019-02-07T07:10:21.697Z,1.69
2019-02-07T07:11:21.687Z,1.72
2019-02-07T07:12:21.668Z,1.77
2019-02-07T07:13:21.644Z,1.77
2019-02-07T07:14:21.628Z,1.83
2019-02-07T07:15:21.976Z,1.93
2019-02-07T07:16:21.597Z,1.95
2019-02-07T07:17:30.572Z,2
2019-02-07T07:18:21.572Z,2.07
2019-02-07T07:19:21.596Z,2.03
2019-02-07T07:20:21.570Z,2.1
2019-02-07T07:21:21.523Z,2.1
2019-02-07T07:22:21.495Z,2.12
2019-02-07T07:23:21.785Z,2.09
2019-02-07T07:24:21.466Z,2.12
2019-02-07T07:25:21.443Z,2.24
2019-02-07T07:26:21.441Z,2.2
2019-02-07T07:27:21.409Z,2.25
2019-02-07T07:28:21.502Z,2.25
2019-02-07T07:29:21.387Z,2.28
2019-02-07T07:30:21.361Z,2.3
2019-02-07T07:31:21.915Z,2.38
2019-02-07T07:32:21.333Z,2.36
2019-02-07T07:33:21.321Z,2.36
2019-02-07T07:34:21.308Z,2.41
2019-02-07T07:35:21.299Z,2.38
2019-02-07T07:36:21.272Z,2.52
2019-02-07T07:37:21.285Z,2.49
2019-02-07T07:38:21.243Z,2.6
2019-02-07T07:39:21.727Z,2.59
2019-02-07T07:40:21.199Z,2.59
2019-02-07T07:41:21.195Z,2.69
2019-02-07T07:42:21.178Z,2.67
2019-02-07T07:43:21.162Z,2.84
2019-02-07T07:44:20.906Z,2.79
2019-02-07T07:45:21.128Z,2.95
2019-02-07T07:46:21.113Z,2.82
2019-02-07T07:47:21.765Z,2.93
2019-02-07T07:48:21.084Z,3.02
2019-02-07T07:49:21.058Z,3.05
2019-02-07T07:50:21.046Z,3.03
2019-02-07T07:51:21.036Z,3.14
2019-02-07T07:52:21.011Z,3.1
2019-02-07T07:53:20.990Z,3.21
2019-02-07T07:54:22.963Z,3.29
2019-02-07T07:55:21.225Z,3.23
2019-02-07T07:56:20.950Z,3.4
2019-02-07T07:57:20.930Z,3.24
2019-02-07T07:58:20.921Z,3.33
2019-02-07T07:59:20.902Z,3.39
2019-02-07T08:00:23.790Z,3.45
2019-02-07T08:01:20.916Z,3.58
2019-02-07T08:02:21.447Z,3.62
2019-02-07T08:03:20.840Z,3.61
2019-02-07T08:04:20.831Z,3.66
2019-02-07T08:05:20.822Z,3.7
2019-02-07T08:06:20.789Z,3.76
2019-02-07T08:07:20.786Z,3.8
2019-02-07T08:08:20.770Z,3.88
2019-02-07T08:09:20.762Z,3.88
2019-02-07T08:10:21.438Z,3.93
2019-02-07T08:11:20.725Z,3.98
2019-02-07T08:12:20.707Z,4.04
2019-02-07T08:13:20.683Z,4.05
2019-02-07T08:14:20.437Z,4.14
2019-02-07T08:15:20.663Z,4.09
2019-02-07T08:16:20.755Z,4.15
2019-02-07T08:17:20.638Z,4.26
2019-02-07T08:18:20.889Z,4.32
2019-02-07T08:19:20.608Z,4.4
2019-02-07T08:20:20.589Z,4.44
2019-02-07T08:21:20.576Z,4.42
2019-02-07T08:23:20.540Z,4.52
2019-02-07T08:24:20.523Z,4.5
2019-02-07T08:25:20.511Z,4.51
2019-02-07T08:26:20.799Z,4.55
2019-02-07T08:27:20.494Z,4.63
2019-02-07T08:28:20.472Z,4.67
2019-02-07T08:29:20.462Z,4.69
2019-02-07T08:30:20.441Z,4.69
2019-02-07T08:31:20.426Z,4.67
2019-02-07T08:32:20.433Z,4.72
2019-02-07T08:33:20.682Z,4.69
2019-02-07T08:34:20.402Z,4.8
2019-02-07T08:35:20.377Z,4.89
2019-02-07T08:36:20.350Z,4.92
2019-02-07T08:37:20.335Z,4.97
2019-02-07T08:38:20.438Z,5.04
2019-02-07T08:39:20.311Z,5.18
2019-02-07T08:40:20.303Z,5.07
2019-02-07T08:41:20.794Z,5.18
2019-02-07T08:42:20.275Z,5.24
2019-02-07T08:43:20.258Z,5.28
2019-02-07T08:44:20.276Z,5.36
2019-02-07T08:45:20.238Z,5.45
2019-02-07T08:46:20.235Z,5.49
2019-02-07T08:47:20.254Z,5.58
2019-02-07T08:48:20.197Z,5.61
2019-02-07T08:49:20.823Z,5.57
2019-02-07T08:50:20.159Z,5.58
2019-02-07T08:51:20.278Z,5.56
2019-02-07T08:52:20.130Z,5.58
2019-02-07T08:53:20.133Z,5.57
2019-02-07T08:54:20.104Z,5.54
2019-02-07T08:55:21.870Z,5.56
2019-02-07T08:56:20.097Z,5.56
2019-02-07T08:57:20.389Z,5.68
2019-02-07T08:58:20.051Z,5.63
2019-02-07T08:59:20.036Z,5.72
2019-02-07T09:00:20.022Z,5.72
2019-02-07T09:01:20.017Z,5.79
2019-02-07T09:02:20.000Z,5.74
2019-02-07T09:03:19.982Z,5.71
2019-02-07T09:04:20.144Z,5.78
2019-02-07T09:05:19.966Z,5.74
2019-02-07T09:06:19.941Z,5.74
2019-02-07T09:07:19.925Z,5.72
2019-02-07T09:08:19.916Z,5.72
2019-02-07T09:09:19.913Z,5.72
2019-02-07T09:10:19.899Z,5.68
2019-02-07T09:11:19.877Z,5.79
2019-02-07T09:12:20.376Z,5.74
2019-02-07T09:13:19.855Z,5.85
2019-02-07T09:14:19.836Z,5.82
2019-02-07T09:15:19.591Z,5.89
2019-02-07T09:16:19.813Z,5.85
2019-02-07T09:17:19.800Z,5.9
2019-02-07T09:18:19.878Z,5.89
2019-02-07T09:19:19.775Z,5.85
2019-02-07T09:20:20.347Z,5.79
2019-02-07T09:21:19.746Z,5.78
2019-02-07T09:22:19.733Z,5.75
2019-02-07T09:23:19.722Z,5.81
2019-02-07T09:24:19.700Z,5.78
2019-02-07T09:25:19.694Z,5.71
2019-02-07T09:26:19.712Z,5.65
2019-02-07T09:27:19.658Z,5.76
2019-02-07T09:28:20.273Z,5.75
2019-02-07T09:29:19.638Z,5.81
2019-02-07T09:30:19.627Z,5.83
2019-02-07T09:31:19.612Z,5.81
2019-02-07T09:32:19.631Z,5.85
2019-02-07T09:33:19.589Z,5.76
2019-02-07T09:34:19.579Z,5.78
2019-02-07T09:35:19.561Z,5.9
2019-02-07T09:36:19.942Z,5.86
2019-02-07T09:37:19.529Z,5.82
2019-02-07T09:38:19.518Z,5.82
2019-02-07T09:39:19.503Z,5.91
2019-02-07T09:40:19.737Z,5.9
2019-02-07T09:41:19.484Z,5.91
2019-02-07T09:42:19.465Z,6
2019-02-07T09:43:19.671Z,5.94
2019-02-07T09:44:19.445Z,6.08
2019-02-07T09:45:19.430Z,6.08
2019-02-07T09:46:19.406Z,6.11
2019-02-07T09:47:19.399Z,6.21
2019-02-07T09:48:26.518Z,6.18
2019-02-07T09:49:19.374Z,6.21
2019-02-07T09:50:19.373Z,6.27
2019-02-07T09:51:19.815Z,6.34
2019-02-07T09:52:19.344Z,6.4
2019-02-07T09:53:28.480Z,6.41
2019-02-07T09:54:19.314Z,6.36
2019-02-07T09:55:19.297Z,6.33
2019-02-07T09:56:19.344Z,6.43
2019-02-07T09:57:19.271Z,6.31
2019-02-07T09:58:19.262Z,6.34
2019-02-07T09:59:19.584Z,6.37
2019-02-07T10:00:19.232Z,6.41
2019-02-07T10:01:19.216Z,6.34
2019-02-07T10:02:19.205Z,6.43
2019-02-07T10:03:19.190Z,6.41
2019-02-07T10:04:19.176Z,6.41
2019-02-07T10:05:19.171Z,6.48
2019-02-07T10:06:19.333Z,6.59
2019-02-07T10:07:19.407Z,6.62
2019-02-07T10:08:19.134Z,6.58
2019-02-07T10:09:19.109Z,6.59
2019-02-07T10:10:19.100Z,6.62
2019-02-07T10:11:19.083Z,6.59
2019-02-07T10:12:19.080Z,6.58
2019-02-07T10:13:19.060Z,6.55
2019-02-07T10:14:19.244Z,6.55
2019-02-07T10:15:19.197Z,6.69
2019-02-07T10:16:19.024Z,6.67
2019-02-07T10:17:19.012Z,6.7
2019-02-07T10:18:18.998Z,6.79
2019-02-07T10:19:18.990Z,6.74
2019-02-07T10:20:18.975Z,6.81
2019-02-07T10:21:18.954Z,6.79
2019-02-07T10:22:19.480Z,6.81
2019-02-07T10:23:18.949Z,6.84
2019-02-07T10:24:18.915Z,6.88
2019-02-07T10:25:18.909Z,6.87
2019-02-07T10:26:18.894Z,6.91
2019-02-07T10:27:18.889Z,6.92
2019-02-07T10:28:18.869Z,6.94
2019-02-07T10:29:18.859Z,6.94
2019-02-07T10:30:19.102Z,6.97
2019-02-07T10:31:18.840Z,6.94
2019-02-07T10:32:18.815Z,6.94
2019-02-07T10:33:18.814Z,6.87
2019-02-07T10:34:21.280Z,6.95
2019-02-07T10:35:27.652Z,6.94
2019-02-07T10:36:20.308Z,6.98
2019-02-07T10:37:18.999Z,7.03
2019-02-07T10:38:18.512Z,6.95
2019-02-07T10:39:18.741Z,6.95
2019-02-07T10:40:18.719Z,6.99
2019-02-07T10:41:18.734Z,7.07
2019-02-07T10:42:18.701Z,7.07
2019-02-07T10:43:18.691Z,7.17
2019-02-07T10:44:18.666Z,7.12
2019-02-07T10:45:19.045Z,7.15
2019-02-07T10:46:21.294Z,7.15
2019-02-07T10:47:18.641Z,7.12
2019-02-07T10:48:18.630Z,7.17
2019-02-07T10:49:18.609Z,7.25
2019-02-07T10:50:18.601Z,7.17
2019-02-07T10:51:18.595Z,7.17
2019-02-07T10:52:18.577Z,7.23
2019-02-07T10:53:19.145Z,7.16
2019-02-07T10:54:18.556Z,7.1
2019-02-07T10:55:18.530Z,7.21
2019-02-07T10:56:18.540Z,7.17
2019-02-07T10:57:18.509Z,7.07
2019-02-07T10:58:18.499Z,7.15
2019-02-07T10:59:18.491Z,7.09
2019-02-07T11:00:18.491Z,7.16
2019-02-07T11:01:18.783Z,7.15
2019-02-07T11:02:18.456Z,7.15
2019-02-07T11:03:18.447Z,7.16
2019-02-07T11:04:18.426Z,7.1
2019-02-07T11:05:18.415Z,7.1
2019-02-07T11:06:18.402Z,7.16
2019-02-07T11:07:18.397Z,7.12
2019-02-07T11:08:18.380Z,7.06
2019-02-07T11:09:18.673Z,7.23
2019-02-07T11:10:18.358Z,7.12
2019-02-07T11:11:18.348Z,7.13
2019-02-07T11:12:18.325Z,7.21
2019-02-07T11:13:18.078Z,7.17
2019-02-07T11:14:18.308Z,7.23
2019-02-07T11:15:18.297Z,7.24
2019-02-07T11:16:18.462Z,7.2
2019-02-07T11:17:18.277Z,7.23
2019-02-07T11:18:18.261Z,7.31
2019-02-07T11:19:26.234Z,7.28
2019-02-07T11:20:18.236Z,7.25
2019-02-07T11:21:18.219Z,7.4
2019-02-07T11:22:18.199Z,7.39
2019-02-07T11:23:18.195Z,7.4
2019-02-07T11:24:18.459Z,7.42
2019-02-07T11:25:18.172Z,7.37
2019-02-07T11:26:18.166Z,7.4
2019-02-07T11:27:18.142Z,7.31
2019-02-07T11:28:18.141Z,7.34
2019-02-07T11:29:18.131Z,7.34
2019-02-07T11:30:18.117Z,7.31
2019-02-07T11:31:18.155Z,7.3
2019-02-07T11:32:18.505Z,7.28
2019-02-07T11:33:18.077Z,7.34
2019-02-07T11:34:18.066Z,7.45
2019-02-07T11:35:18.072Z,7.57
2019-02-07T11:36:18.039Z,7.63
2019-02-07T11:37:18.034Z,7.5
2019-02-07T11:38:18.014Z,7.5
2019-02-07T11:39:18.161Z,7.72
2019-02-07T11:40:18.605Z,7.69
2019-02-07T11:41:17.977Z,7.8
2019-02-07T11:42:17.967Z,7.86
2019-02-07T11:43:17.960Z,7.87
2019-02-07T11:44:17.939Z,7.95
2019-02-07T11:45:17.935Z,8.01
2019-02-07T11:46:17.922Z,8.01
2019-02-07T11:47:17.908Z,8.12
2019-02-07T11:48:18.227Z,8.2
2019-02-07T11:49:17.897Z,8.18
2019-02-07T11:50:17.877Z,8.25
2019-02-07T11:51:17.867Z,8.23
2019-02-07T11:52:17.854Z,8.28
2019-02-07T11:53:17.835Z,8.25
2019-02-07T11:54:17.827Z,8.37
2019-02-07T11:55:17.623Z,8.33
2019-02-07T11:56:18.173Z,8.37
2019-02-07T11:57:17.793Z,8.37
2019-02-07T11:58:17.779Z,8.53
2019-02-07T11:59:17.766Z,8.44
2019-02-07T12:00:17.622Z,8.45
2019-02-07T12:01:17.744Z,8.4
2019-02-07T12:02:17.730Z,8.5
2019-02-07T12:03:17.970Z,8.38
2019-02-07T12:04:17.719Z,8.45
2019-02-07T12:05:19.748Z,8.44
2019-02-07T12:06:17.692Z,8.43
2019-02-07T12:07:17.676Z,8.38
2019-02-07T12:08:17.422Z,8.45
2019-02-07T12:09:17.670Z,8.44
2019-02-07T12:10:17.644Z,8.47
2019-02-07T12:11:17.922Z,8.45
2019-02-07T12:12:17.632Z,8.43
2019-02-07T12:13:17.609Z,8.48
2019-02-07T12:14:17.611Z,8.47
2019-02-07T12:15:17.596Z,8.48
2019-02-07T12:16:17.623Z,8.48
2019-02-07T12:17:17.564Z,8.48
2019-02-07T12:18:17.556Z,8.53
2019-02-07T12:19:23.009Z,8.56
2019-02-07T12:20:17.537Z,8.56
2019-02-07T12:21:17.526Z,8.59
2019-02-07T12:22:17.510Z,8.48
2019-02-07T12:23:17.268Z,8.38
2019-02-07T12:24:17.511Z,8.47
2019-02-07T12:25:17.491Z,8.43
2019-02-07T12:26:17.465Z,8.5
2019-02-07T12:27:18.167Z,8.44
2019-02-07T12:28:17.445Z,8.44
2019-02-07T12:29:17.435Z,8.41
2019-02-07T12:30:17.420Z,8.45
2019-02-07T12:31:17.425Z,8.38
2019-02-07T12:32:17.403Z,8.37
2019-02-07T12:33:17.388Z,8.45
2019-02-07T12:34:17.466Z,8.43
2019-02-07T12:35:17.767Z,8.38
2019-02-07T12:36:17.360Z,8.33
2019-02-07T12:37:17.349Z,8.37
2019-02-07T12:38:17.333Z,8.25
2019-02-07T12:39:17.326Z,8.34
2019-02-07T12:40:17.310Z,8.16
2019-02-07T12:41:17.306Z,8.16
2019-02-07T12:42:17.573Z,8.15
2019-02-07T12:43:17.287Z,8.15
2019-02-07T12:44:17.268Z,8.04
2019-02-07T12:45:17.262Z,8.02
2019-02-07T12:46:17.258Z,8.05
2019-02-07T12:47:17.233Z,8.16
2019-02-07T12:48:17.225Z,8.15
2019-02-07T12:49:17.213Z,8.26
2019-02-07T12:50:17.685Z,8.33
2019-02-07T12:51:17.190Z,8.37
2019-02-07T12:52:17.180Z,8.34
2019-02-07T12:53:17.166Z,8.38
2019-02-07T12:54:16.917Z,8.38
2019-02-07T12:55:17.149Z,8.36
2019-02-07T12:56:16.898Z,8.37
2019-02-07T12:57:17.173Z,8.4
2019-02-07T12:58:17.728Z,8.48
2019-02-07T12:59:17.095Z,8.38
2019-02-07T13:00:17.090Z,8.38
2019-02-07T13:01:17.075Z,8.43
2019-02-07T13:02:17.070Z,8.36
2019-02-07T13:03:17.045Z,8.36
2019-02-07T13:04:17.048Z,8.33
2019-02-07T13:05:17.035Z,8.38
2019-02-07T13:06:17.658Z,8.28
2019-02-07T13:07:17.010Z,8.4
2019-02-07T13:08:17.000Z,8.47
2019-02-07T13:09:16.985Z,8.5
2019-02-07T13:10:16.978Z,8.48
2019-02-07T13:11:17.005Z,8.44
2019-02-07T13:12:17.000Z,8.45
2019-02-07T13:13:17.012Z,8.47
2019-02-07T13:14:17.661Z,8.47
2019-02-07T13:15:16.974Z,8.38
2019-02-07T13:16:16.997Z,8.38
2019-02-07T13:17:16.912Z,8.37
2019-02-07T13:18:16.923Z,8.34
2019-02-07T13:19:16.902Z,8.34
2019-02-07T13:20:16.655Z,8.3
2019-02-07T13:21:16.890Z,8.38
2019-02-07T13:22:17.215Z,8.4
2019-02-07T13:23:16.877Z,8.4
2019-02-07T13:24:16.932Z,8.47